Time;durP1;ratioP1;P1;durP2;ratioP2;P2;SDS_P1;SDS_P2;PMS_P1;PMS_P2;Temp;Humidity;BMP_temperature;BMP_pressure;BME280_temperature;BME280_humidity;BME280_pressure;Samples;Min_cycle;Max_cycle;Signal;HPM_P1;HPM_P2
2023/12/16 00:00:43;;;;;;;16.47;13.53;;;;;;;11.57;62.49;101023.47;8360036;23;20236;-77
2023/12/16 00:04:06;;;;;;;17.93;13.03;;;;;;;11.65;62.46;101028.13;8360010;23;20235;-78
2023/12/16 00:07:28;;;;;;;20.07;14.30;;;;;;;11.62;62.25;101042.81;8361891;23;20651;-79
2023/12/16 00:10:50;;;;;;;16.73;14.00;;;;;;;11.62;62.33;101029.31;8362724;23;20232;-77
2023/12/16 00:14:11;;;;;;;17.63;13.73;;;;;;;11.80;62.18;101023.88;8362908;23;20308;-77
2023/12/16 00:17:33;;;;;;;18.33;13.20;;;;;;;11.96;61.57;101024.81;8363446;23;20572;-77
2023/12/16 00:20:56;;;;;;;15.63;13.23;;;;;;;12.03;61.18;101023.16;8361743;23;20242;-79
2023/12/16 00:24:17;;;;;;;16.47;13.23;;;;;;;11.97;61.07;101029.19;8363150;23;20205;-78
2023/12/16 00:27:39;;;;;;;17.93;13.10;;;;;;;11.81;61.72;101033.66;8362679;23;20193;-79
2023/12/16 00:31:00;;;;;;;19.03;13.53;;;;;;;11.77;61.17;101032.28;8362449;23;20213;-78
2023/12/16 00:34:22;;;;;;;18.23;13.10;;;;;;;11.79;61.40;101014.91;8363330;23;20219;-77
2023/12/16 00:37:44;;;;;;;16.73;13.33;;;;;;;11.96;61.31;101015.84;8363467;23;20277;-78
2023/12/16 00:41:07;;;;;;;20.07;14.60;;;;;;;11.87;61.13;101033.84;8361797;23;20260;-77
2023/12/16 00:44:30;;;;;;;17.13;13.23;;;;;;;11.82;61.18;101038.06;8363003;23;20209;-78
2023/12/16 00:47:52;;;;;;;17.47;13.40;;;;;;;11.73;61.46;101039.84;8363257;23;20182;-77
2023/12/16 00:51:14;;;;;;;17.40;13.03;;;;;;;11.91;61.23;101042.50;8362418;23;20206;-79
2023/12/16 00:54:36;;;;;;;17.57;14.00;;;;;;;11.65;61.40;101038.94;8361145;23;20188;-79
2023/12/16 00:57:58;;;;;;;15.90;13.80;;;;;;;11.76;61.57;101050.34;8362786;23;20229;-77
2023/12/16 01:01:19;;;;;;;19.63;13.90;;;;;;;11.75;61.24;101056.75;8360800;23;20328;-78
2023/12/16 01:04:41;;;;;;;20.70;13.93;;;;;;;11.72;61.38;101065.19;8362851;23;20678;-78
2023/12/16 01:08:02;;;;;;;19.47;14.10;;;;;;;11.69;61.85;101064.66;8363054;23;20654;-77
2023/12/16 01:11:25;;;;;;;17.50;13.40;;;;;;;11.50;62.12;101064.78;8362191;23;20286;-78
2023/12/16 01:14:47;;;;;;;16.13;13.47;;;;;;;11.34;62.28;101046.59;8362995;23;20192;-77
2023/12/16 01:18:08;;;;;;;15.73;13.30;;;;;;;11.73;61.85;101071.44;8362919;23;20509;-78
2023/12/16 01:21:30;;;;;;;17.60;13.33;;;;;;;11.78;61.71;101064.56;8362131;23;20287;-77
2023/12/16 01:24:51;;;;;;;19.27;13.10;;;;;;;11.94;61.37;101075.50;8362806;23;20236;-77
2023/12/16 01:28:15;;;;;;;19.50;14.80;;;;;;;11.90;61.04;101070.53;8362087;23;20243;-77
2023/12/16 01:31:37;;;;;;;15.30;12.93;;;;;;;12.09;60.72;101064.94;8361727;23;20201;-77
2023/12/16 01:34:58;;;;;;;18.30;13.37;;;;;;;11.73;61.29;101071.44;8362068;23;20641;-77
2023/12/16 01:38:20;;;;;;;18.23;13.43;;;;;;;11.31;62.14;101073.06;8362405;23;20203;-78
2023/12/16 01:41:42;;;;;;;23.17;14.40;;;;;;;11.54;62.10;101075.16;8361450;23;20216;-79
2023/12/16 01:45:06;;;;;;;16.63;12.77;;;;;;;11.66;61.75;101067.66;8362484;23;20287;-78
2023/12/16 01:48:28;;;;;;;20.10;14.17;;;;;;;11.75;61.92;101059.44;8362540;23;20262;-77
2023/12/16 01:51:49;;;;;;;17.37;13.37;;;;;;;11.83;61.15;101053.25;8361993;23;20340;-78
2023/12/16 01:55:11;;;;;;;19.97;14.23;;;;;;;11.41;61.98;101052.22;8362497;23;20185;-77
2023/12/16 01:58:33;;;;;;;16.53;14.30;;;;;;;11.51;61.88;101071.91;8362242;23;20720;-77
2023/12/16 02:01:56;;;;;;;16.10;13.17;;;;;;;11.67;61.96;101077.47;8361803;23;20241;-79
2023/12/16 02:05:17;;;;;;;16.20;13.20;;;;;;;11.68;61.77;101077.31;8361940;23;20212;-77
2023/12/16 02:08:39;;;;;;;20.53;15.40;;;;;;;11.69;61.67;101088.97;8361634;23;20189;-77
2023/12/16 02:12:01;;;;;;;19.83;15.43;;;;;;;11.73;61.87;101079.53;8362214;23;20291;-78
2023/12/16 02:15:22;;;;;;;16.13;13.50;;;;;;;11.84;61.12;101069.34;8361737;23;20188;-77
2023/12/16 02:18:45;;;;;;;20.13;13.20;;;;;;;11.83;61.28;101080.28;8361343;23;20537;-77
2023/12/16 02:22:06;;;;;;;17.20;13.00;;;;;;;11.66;61.31;101068.53;8362232;23;20288;-78
2023/12/16 02:25:30;;;;;;;18.80;13.43;;;;;;;11.47;61.87;101084.03;8362148;23;20255;-77
2023/12/16 02:28:51;;;;;;;19.40;14.73;;;;;;;11.27;62.49;101085.19;8361364;23;20621;-78
2023/12/16 02:32:13;;;;;;;20.87;13.60;;;;;;;11.10;63.74;101097.66;8361063;23;20724;-77
2023/12/16 02:35:34;;;;;;;17.13;12.93;;;;;;;11.59;62.24;101088.22;8360545;23;20289;-77
2023/12/16 02:38:56;;;;;;;18.70;14.03;;;;;;;11.84;61.40;101095.50;8360693;23;20196;-77
2023/12/16 02:42:18;;;;;;;19.97;14.70;;;;;;;11.79;61.16;101087.88;8360735;23;20285;-79
2023/12/16 02:45:40;;;;;;;17.87;13.50;;;;;;;11.52;61.67;101062.81;8362266;23;20328;-77
2023/12/16 02:49:01;;;;;;;16.60;13.90;;;;;;;11.63;61.47;101095.00;8361946;23;20185;-77
2023/12/16 02:52:23;;;;;;;16.70;13.57;;;;;;;11.45;61.81;101086.88;8362651;23;20685;-77
2023/12/16 02:55:44;;;;;;;16.10;13.37;;;;;;;11.29;62.04;101080.47;8360127;23;20181;-77
2023/12/16 02:59:07;;;;;;;19.60;13.97;;;;;;;11.53;61.60;101088.81;8362363;23;20279;-77
2023/12/16 03:02:29;;;;;;;18.70;14.27;;;;;;;11.58;61.84;101081.94;8363394;23;20282;-77
2023/12/16 03:05:50;;;;;;;17.97;13.87;;;;;;;11.43;61.69;101091.59;8363191;23;20646;-80
2023/12/16 03:09:12;;;;;;;20.13;15.30;;;;;;;10.87;63.45;101100.97;8362834;23;20209;-78
2023/12/16 03:12:34;;;;;;;18.33;14.37;;;;;;;11.18;63.00;101083.41;8362239;23;20239;-78
2023/12/16 03:15:57;;;;;;;19.10;14.30;;;;;;;11.25;62.51;101074.53;8362527;23;20674;-77
2023/12/16 03:19:18;;;;;;;19.67;13.63;;;;;;;11.32;62.17;101089.13;8362500;23;20191;-78
2023/12/16 03:22:40;;;;;;;15.47;12.57;;;;;;;11.44;62.34;101090.59;8363583;23;20263;-78
2023/12/16 03:26:02;;;;;;;18.10;13.77;;;;;;;11.56;61.89;101099.31;8363152;23;20229;-77
2023/12/16 03:29:23;;;;;;;19.33;13.70;;;;;;;11.60;61.74;101093.47;8361417;23;20191;-77
2023/12/16 03:32:46;;;;;;;16.87;13.60;;;;;;;11.25;61.93;101082.66;8362214;23;20283;-78
2023/12/16 03:36:09;;;;;;;19.37;13.83;;;;;;;11.24;62.12;101094.47;8363903;23;20189;-78
2023/12/16 03:39:30;;;;;;;19.83;14.43;;;;;;;11.12;62.66;101106.50;8362640;23;20193;-77
2023/12/16 03:42:52;;;;;;;20.40;15.00;;;;;;;11.29;62.78;101110.19;8363379;23;20208;-77
2023/12/16 03:46:13;;;;;;;19.47;14.83;;;;;;;11.39;62.46;101101.00;8361124;23;20292;-77
2023/12/16 03:49:36;;;;;;;20.67;15.00;;;;;;;11.54;62.09;101102.16;8361342;23;20316;-79
2023/12/16 03:52:57;;;;;;;18.90;14.60;;;;;;;11.72;61.48;101099.47;8362882;23;20230;-78
2023/12/16 03:56:19;;;;;;;18.30;14.27;;;;;;;11.67;61.50;101101.78;8363092;23;20209;-79
2023/12/16 03:59:40;;;;;;;23.70;14.20;;;;;;;11.64;61.60;101088.59;8362652;23;20216;-77
2023/12/16 04:03:02;;;;;;;19.13;14.33;;;;;;;11.75;61.40;101096.47;8362739;23;20283;-78
2023/12/16 04:06:25;;;;;;;16.67;12.60;;;;;;;11.73;61.08;101103.84;8361893;23;20189;-79
2023/12/16 04:09:47;;;;;;;18.97;13.23;;;;;;;11.62;60.89;101104.97;8361705;23;20578;-77
2023/12/16 04:13:08;;;;;;;18.53;13.67;;;;;;;11.29;61.22;101113.75;8362275;23;20233;-77
2023/12/16 04:16:30;;;;;;;17.33;13.37;;;;;;;11.44;61.94;101096.00;8363532;23;20256;-77
2023/12/16 04:19:52;;;;;;;16.97;13.27;;;;;;;11.60;61.11;101104.28;8362802;23;20231;-78
2023/12/16 04:23:15;;;;;;;16.87;12.97;;;;;;;11.39;61.67;101113.69;8362704;23;20252;-79
2023/12/16 04:26:36;;;;;;;18.73;13.77;;;;;;;11.28;62.30;101111.19;8362137;23;20296;-77
2023/12/16 04:29:58;;;;;;;15.30;12.43;;;;;;;11.40;60.77;101083.78;8361255;23;20185;-78
2023/12/16 04:33:19;;;;;;;17.67;13.53;;;;;;;11.49;61.33;101111.72;8363443;23;20284;-78
2023/12/16 04:36:41;;;;;;;15.90;12.27;;;;;;;11.57;60.94;101109.94;8363455;23;20195;-78
2023/12/16 04:40:05;;;;;;;15.77;12.50;;;;;;;11.40;61.46;101105.41;8361568;23;20221;-78
2023/12/16 04:43:26;;;;;;;17.10;12.87;;;;;;;11.43;61.31;101113.22;8361978;23;20274;-77
2023/12/16 04:46:48;;;;;;;16.20;12.27;;;;;;;11.35;60.82;101109.56;8360173;23;20216;-79
2023/12/16 04:50:10;;;;;;;20.37;13.63;;;;;;;11.42;61.19;101119.63;8361679;23;20218;-77
2023/12/16 04:53:31;;;;;;;15.83;13.27;;;;;;;11.54;61.32;101117.53;8362091;23;20219;-77
2023/12/16 04:56:54;;;;;;;14.93;11.87;;;;;;;11.68;60.84;101111.63;8360750;23;20271;-79
2023/12/16 05:00:16;;;;;;;14.03;11.83;;;;;;;11.76;60.43;101096.28;8361610;23;20251;-77
2023/12/16 05:03:41;;;;;;;17.77;12.97;;;;;;;11.66;60.25;101103.66;8361220;23;20222;-77
2023/12/16 05:07:02;;;;;;;17.23;13.50;;;;;;;11.58;60.66;101119.78;8361306;23;20265;-78
2023/12/16 05:10:24;;;;;;;17.20;13.77;;;;;;;11.59;60.83;101115.25;8361645;23;20339;-78
2023/12/16 05:13:46;;;;;;;15.00;12.67;;;;;;;11.69;60.30;101111.44;8361257;23;20308;-78
2023/12/16 05:17:08;;;;;;;15.93;14.03;;;;;;;11.62;60.09;101115.78;8361698;23;20294;-77
2023/12/16 05:20:29;;;;;;;15.33;13.37;;;;;;;11.61;60.61;101113.22;8361727;23;20232;-77
2023/12/16 05:23:51;;;;;;;18.90;14.50;;;;;;;11.66;60.38;101116.31;8362820;23;20284;-77
2023/12/16 05:27:13;;;;;;;17.73;12.10;;;;;;;11.50;60.33;101103.47;8362319;23;20186;-80
2023/12/16 05:30:36;;;;;;;16.73;12.73;;;;;;;11.57;60.27;101114.53;8361641;23;20212;-77
2023/12/16 05:33:57;;;;;;;15.47;13.00;;;;;;;11.30;60.77;101123.56;8361341;23;20518;-78
2023/12/16 05:37:19;;;;;;;17.07;13.73;;;;;;;11.35;61.12;101125.78;8361333;23;20497;-79
2023/12/16 05:40:41;;;;;;;17.03;13.73;;;;;;;11.52;60.60;101133.03;8361173;23;20224;-79
2023/12/16 05:44:02;;;;;;;18.90;14.03;;;;;;;11.59;60.11;101132.31;8361688;23;20287;-77
2023/12/16 05:47:26;;;;;;;23.50;16.07;;;;;;;11.40;60.29;101096.47;8362022;23;20185;-78
2023/12/16 05:50:47;;;;;;;18.10;15.27;;;;;;;11.53;60.01;101115.81;8359792;23;20208;-80
2023/12/16 05:54:09;;;;;;;13.73;12.33;;;;;;;11.61;59.52;101122.19;8360742;23;20213;-77
2023/12/16 05:57:30;;;;;;;12.97;10.47;;;;;;;11.52;59.60;101119.53;8362232;23;20639;-77
2023/12/16 06:00:52;;;;;;;13.07;11.17;;;;;;;11.31;59.86;101121.69;8361055;23;20221;-79
2023/12/16 06:04:15;;;;;;;12.60;10.90;;;;;;;11.41;59.91;101117.06;8362825;23;20206;-78
2023/12/16 06:07:36;;;;;;;14.00;11.07;;;;;;;11.16;60.14;101086.25;8361810;23;20192;-79
2023/12/16 06:10:58;;;;;;;13.53;10.63;;;;;;;11.32;60.03;101128.78;8360704;23;20205;-80
2023/12/16 06:14:19;;;;;;;12.00;10.77;;;;;;;11.35;59.99;101134.75;8361097;23;20232;-77
2023/12/16 06:17:41;;;;;;;13.07;10.93;;;;;;;11.46;59.48;101142.59;8362063;23;20268;-77
2023/12/16 06:21:05;;;;;;;14.97;10.40;;;;;;;11.18;59.37;101150.91;8360699;23;20246;-78
2023/12/16 06:24:27;;;;;;;13.03;10.40;;;;;;;11.48;59.25;101145.16;8363597;23;20206;-77
2023/12/16 06:27:49;;;;;;;12.40;10.40;;;;;;;11.18;59.03;101148.22;8362769;23;20284;-78
2023/12/16 06:31:15;;;;;;;11.70;9.90;;;;;;;11.41;58.34;101150.34;8361832;23;20298;-77
2023/12/16 06:34:37;;;;;;;12.67;9.67;;;;;;;11.50;58.43;101146.69;8363981;23;20217;-78
2023/12/16 06:37:59;;;;;;;11.50;10.43;;;;;;;11.43;58.09;101145.63;8363258;23;20278;-78
2023/12/16 06:41:21;;;;;;;11.47;10.17;;;;;;;11.02;59.09;101139.94;8362029;23;20301;-77
2023/12/16 06:44:42;;;;;;;10.97;9.87;;;;;;;11.37;58.74;101162.44;8361403;23;20232;-78
2023/12/16 06:48:04;;;;;;;11.60;10.17;;;;;;;11.04;59.41;101151.44;8362501;23;20181;-77
2023/12/16 06:51:26;;;;;;;11.90;9.97;;;;;;;11.08;59.26;101147.41;8362117;23;20238;-77
2023/12/16 06:54:48;;;;;;;12.50;10.13;;;;;;;11.14;59.35;101154.91;8363690;23;20266;-78
2023/12/16 06:58:10;;;;;;;12.97;9.97;;;;;;;11.38;58.67;101147.94;8362099;23;20632;-78
2023/12/16 07:01:31;;;;;;;11.43;10.07;;;;;;;11.28;58.33;101163.34;8362026;23;20331;-78
2023/12/16 07:04:53;;;;;;;11.87;9.97;;;;;;;11.24;58.84;101150.31;8360690;23;20245;-78
2023/12/16 07:08:14;;;;;;;13.10;10.30;;;;;;;11.30;58.63;101157.81;8362759;23;20209;-77
2023/12/16 07:11:40;;;;;;;11.23;9.80;;;;;;;11.28;58.14;101159.81;8363041;23;20273;-77
2023/12/16 07:15:01;;;;;;;13.90;9.40;;;;;;;11.01;58.69;101136.41;8363686;23;20611;-77
2023/12/16 07:18:23;;;;;;;11.80;10.00;;;;;;;11.17;58.67;101177.06;8362737;23;20260;-76
2023/12/16 07:21:44;;;;;;;12.27;9.37;;;;;;;11.19;58.63;101168.81;8362048;23;20205;-77
2023/12/16 07:25:07;;;;;;;13.30;9.47;;;;;;;11.00;58.98;101167.09;8362264;23;20203;-77
2023/12/16 07:28:29;;;;;;;11.77;9.83;;;;;;;10.84;59.20;101174.13;8362691;23;20194;-77
2023/12/16 07:31:51;;;;;;;12.40;9.33;;;;;;;10.98;58.96;101181.75;8361819;23;20280;-76
2023/12/16 07:35:15;;;;;;;13.03;9.20;;;;;;;11.10;58.83;101173.28;8363763;23;20593;-77
2023/12/16 07:38:37;;;;;;;11.67;10.20;;;;;;;11.14;58.70;101174.69;8362423;23;20911;-77
2023/12/16 07:41:58;;;;;;;10.33;9.23;;;;;;;11.19;58.50;101166.13;8359805;23;20249;-77
2023/12/16 07:45:21;;;;;;;11.27;9.67;;;;;;;11.11;58.52;101184.94;8359049;23;20367;-78
2023/12/16 07:48:45;;;;;;;9.90;8.57;;;;;;;11.03;57.71;101182.16;8361854;23;20193;-77
2023/12/16 07:52:06;;;;;;;11.77;9.40;;;;;;;11.20;58.64;101184.00;8363639;23;20529;-77
2023/12/16 07:55:29;;;;;;;10.47;8.80;;;;;;;11.14;58.92;101190.88;8360385;23;20368;-78
2023/12/16 07:58:51;;;;;;;9.70;8.70;;;;;;;11.14;58.82;101173.81;8361322;23;20232;-77
2023/12/16 08:02:13;;;;;;;9.77;8.83;;;;;;;11.31;58.61;101189.22;8361253;23;20287;-78
2023/12/16 08:05:35;;;;;;;10.43;9.13;;;;;;;11.45;58.40;101210.31;8361176;23;20631;-77
2023/12/16 08:08:56;;;;;;;9.73;8.30;;;;;;;11.42;57.64;101214.16;8360861;23;20268;-77
2023/12/16 08:12:18;;;;;;;9.90;8.20;;;;;;;11.22;57.58;101217.97;8362062;23;20220;-76
2023/12/16 08:15:40;;;;;;;8.70;7.90;;;;;;;10.95;57.57;101163.13;8362271;23;20185;-77
2023/12/16 08:19:03;;;;;;;8.77;7.43;;;;;;;11.55;56.89;101220.03;8361234;23;20239;-77
2023/12/16 08:22:24;;;;;;;9.43;7.50;;;;;;;11.45;57.25;101231.94;8361124;23;20298;-76
2023/12/16 08:25:46;;;;;;;7.50;6.80;;;;;;;11.28;57.10;101200.31;8362086;23;20695;-76
2023/12/16 08:29:07;;;;;;;9.03;7.50;;;;;;;11.55;56.83;101220.03;8361310;23;20271;-76
2023/12/16 08:32:29;;;;;;;8.50;7.63;;;;;;;11.52;57.39;101238.41;8362187;23;20800;-77
2023/12/16 08:35:52;;;;;;;9.20;7.77;;;;;;;11.60;57.29;101244.78;8362539;23;20263;-76
2023/12/16 08:39:13;;;;;;;8.77;7.70;;;;;;;11.79;56.56;101243.78;8360396;23;20204;-77
2023/12/16 08:42:35;;;;;;;8.03;7.23;;;;;;;11.54;57.00;101237.25;8360325;23;20286;-77
2023/12/16 08:45:56;;;;;;;7.90;6.80;;;;;;;11.58;56.76;101244.06;8359988;23;20301;-77
2023/12/16 08:49:18;;;;;;;7.63;6.93;;;;;;;11.54;56.79;101245.38;8360811;23;20635;-76
2023/12/16 08:52:42;;;;;;;7.80;6.77;;;;;;;11.69;55.97;101245.72;8361335;23;20284;-78
2023/12/16 08:56:04;;;;;;;8.20;7.40;;;;;;;11.46;56.79;101242.56;8361150;23;20181;-78
2023/12/16 08:59:25;;;;;;;7.67;6.87;;;;;;;11.55;56.93;101249.78;8360245;23;20289;-78
2023/12/16 09:02:47;;;;;;;9.90;7.03;;;;;;;11.67;56.48;101253.97;8361035;23;20287;-76
2023/12/16 09:06:08;;;;;;;8.37;6.83;;;;;;;11.76;56.68;101254.91;8362087;23;20310;-77
2023/12/16 09:09:31;;;;;;;9.70;7.23;;;;;;;11.97;55.81;101261.72;8361138;23;20182;-80
2023/12/16 09:12:53;;;;;;;9.27;7.40;;;;;;;11.98;56.42;101265.28;8361563;23;20259;-76
2023/12/16 09:16:14;;;;;;;9.37;7.63;;;;;;;12.02;55.66;101267.53;8361452;23;20693;-76
2023/12/16 09:19:36;;;;;;;9.90;7.30;;;;;;;12.08;55.70;101266.91;8360536;23;20271;-76
2023/12/16 09:22:57;;;;;;;8.53;7.60;;;;;;;11.96;56.59;101280.78;8362791;23;20258;-76
2023/12/16 09:26:21;;;;;;;9.97;7.73;;;;;;;12.21;56.50;101280.03;8363011;23;20205;-76
2023/12/16 09:29:42;;;;;;;9.93;8.50;;;;;;;12.19;56.13;101282.91;8360117;23;20185;-76
2023/12/16 09:33:04;;;;;;;8.83;7.90;;;;;;;12.33;55.62;101276.09;8361115;23;20232;-77
2023/12/16 09:36:27;;;;;;;8.80;7.90;;;;;;;12.47;55.14;101270.97;8361756;23;20208;-75
2023/12/16 09:39:49;;;;;;;7.27;6.50;;;;;;;12.58;54.95;101283.38;8361753;23;20559;-76
2023/12/16 09:43:16;;;;;;;8.83;7.70;;;;;;;12.49;55.16;101284.31;8362590;23;20288;-77
2023/12/16 09:46:38;;;;;;;9.60;7.87;;;;;;;12.42;55.55;101291.38;8360481;23;20316;-77
2023/12/16 09:50:00;;;;;;;9.10;7.63;;;;;;;12.49;55.85;101297.84;8359621;23;20193;-77
2023/12/16 09:53:22;;;;;;;9.20;8.20;;;;;;;12.72;55.42;101302.63;8359263;23;20205;-78
2023/12/16 09:56:45;;;;;;;12.63;8.60;;;;;;;12.57;55.53;101293.34;8361261;23;20265;-78
2023/12/16 10:00:10;;;;;;;10.20;8.97;;;;;;;12.59;55.90;101272.41;8361942;23;20193;-78
2023/12/16 10:03:31;;;;;;;8.90;8.00;;;;;;;12.65;56.09;101270.91;8362950;23;20181;-77
2023/12/16 10:06:53;;;;;;;8.83;7.93;;;;;;;12.79;55.51;101287.44;8363147;23;20283;-77
2023/12/16 10:10:14;;;;;;;9.40;8.40;;;;;;;12.80;55.27;101272.88;8361772;23;20209;-78
2023/12/16 10:13:54;;;;;;;9.53;8.20;;;;;;;12.83;54.91;101245.50;8363125;23;20662;-77
2023/12/16 10:17:18;;;;;;;11.03;7.80;;;;;;;12.72;55.14;101263.84;8362436;23;20267;-78
2023/12/16 10:20:39;;;;;;;8.00;7.20;;;;;;;12.75;55.23;101263.53;8361447;23;20238;-78
2023/12/16 10:24:02;;;;;;;9.63;7.10;;;;;;;12.90;54.68;101259.22;8361706;23;20672;-77
2023/12/16 10:27:24;;;;;;;8.73;7.80;;;;;;;12.86;55.04;101249.75;8361894;23;20288;-78
2023/12/16 10:30:47;;;;;;;9.27;8.37;;;;;;;12.77;55.30;101246.13;8365765;23;20217;-80
2023/12/16 10:34:09;;;;;;;8.67;7.70;;;;;;;12.90;54.62;101249.25;8362579;23;20585;-75
2023/12/16 10:37:31;;;;;;;10.77;8.63;;;;;;;13.03;55.34;101265.94;8363185;23;20658;-74
2023/12/16 10:40:53;;;;;;;9.83;7.90;;;;;;;13.14;55.03;101251.25;8362250;23;20221;-74
2023/12/16 10:44:15;;;;;;;8.83;7.93;;;;;;;13.20;55.36;101259.59;8362890;23;20224;-77
2023/12/16 10:47:38;;;;;;;7.90;7.10;;;;;;;13.08;55.02;101255.47;8362554;23;20246;-78
2023/12/16 10:51:02;;;;;;;9.87;7.83;;;;;;;13.22;54.15;101252.13;8358051;23;20223;-77
2023/12/16 10:54:29;;;;;;;10.07;8.20;;;;;;;13.03;55.05;101249.69;8363190;23;20190;-77
2023/12/16 10:57:59;;;;;;;8.83;7.23;;;;;;;13.35;54.42;101244.44;8363087;23;20274;-78
2023/12/16 11:01:23;;;;;;;12.23;7.33;;;;;;;13.38;54.07;101240.50;8361226;23;20213;-77
2023/12/16 11:04:47;;;;;;;8.67;7.40;;;;;;;13.31;54.53;101234.91;8361417;23;20182;-78
2023/12/16 11:08:10;;;;;;;8.93;7.07;;;;;;;13.06;54.51;101246.66;8361683;23;20213;-77
2023/12/16 11:11:32;;;;;;;8.00;7.20;;;;;;;13.36;54.60;101239.84;8360818;23;20334;-78
2023/12/16 11:14:55;;;;;;;8.40;6.53;;;;;;;13.39;56.03;101231.41;8363368;23;20706;-78
2023/12/16 11:18:18;;;;;;;7.33;6.53;;;;;;;13.60;54.05;101210.09;8364563;23;20506;-77
2023/12/16 11:21:42;;;;;;;7.97;6.90;;;;;;;13.59;54.03;101222.81;8360892;23;20567;-78
2023/12/16 11:25:16;;;;;;;9.13;7.20;;;;;;;13.38;53.31;101229.66;8362265;23;20186;-80
2023/12/16 11:28:38;;;;;;;14.43;9.87;;;;;;;13.20;54.64;101235.22;8360794;23;20255;-81
2023/12/16 11:32:00;;;;;;;16.70;9.53;;;;;;;13.27;55.00;101221.88;8363093;23;20697;-78
2023/12/16 11:35:52;;;;;;;8.50;6.30;;;;;;;13.41;54.56;101240.19;8366092;23;20177;-77
2023/12/16 11:39:38;;;;;;;10.77;7.73;;;;;;;13.27;54.15;101217.28;8438294;23;20267;-78
2023/12/16 11:43:03;;;;;;;9.20;7.13;;;;;;;13.25;53.20;101213.03;8365445;23;20503;-77
2023/12/16 11:46:35;;;;;;;8.27;7.00;;;;;;;13.02;52.09;101199.25;8363162;23;20190;-79
2023/12/16 11:49:58;;;;;;;8.50;7.60;;;;;;;13.07;53.41;101233.97;8363329;23;20212;-80
2023/12/16 11:53:19;;;;;;;10.70;8.23;;;;;;;12.65;54.68;101220.34;8363304;23;20283;-77
2023/12/16 11:56:41;;;;;;;8.97;7.53;;;;;;;12.56;54.85;101223.16;8364278;23;20257;-79
2023/12/16 12:00:05;;;;;;;10.43;8.30;;;;;;;13.17;54.45;101227.41;8362529;23;20206;-80
2023/12/16 12:03:27;;;;;;;9.53;7.27;;;;;;;12.78;54.88;101220.75;8362076;23;20209;-79
2023/12/16 12:06:48;;;;;;;10.97;7.87;;;;;;;12.82;54.92;101218.56;8376936;23;20228;-79
2023/12/16 12:10:10;;;;;;;10.03;8.10;;;;;;;13.04;54.70;101218.03;8362494;23;20228;-77
2023/12/16 12:13:32;;;;;;;12.57;9.10;;;;;;;12.95;55.21;101218.97;8365204;23;20185;-76
2023/12/16 12:16:55;;;;;;;12.40;8.93;;;;;;;13.54;53.40;101200.78;8364590;23;20228;-79
2023/12/16 12:20:18;;;;;;;13.70;8.97;;;;;;;13.34;53.22;101207.47;8363729;23;20264;-79
2023/12/16 12:23:40;;;;;;;11.67;9.00;;;;;;;13.36;53.01;101188.34;8363559;23;20260;-78
2023/12/16 12:27:02;;;;;;;11.70;9.93;;;;;;;13.18;53.13;101185.78;8365415;23;20206;-78
2023/12/16 12:30:23;;;;;;;12.27;9.07;;;;;;;13.08;53.38;101171.50;8364616;23;20193;-79
2023/12/16 12:33:47;;;;;;;13.30;9.40;;;;;;;13.21;52.26;101169.16;8364336;23;20186;-79
2023/12/16 12:37:09;;;;;;;12.90;9.50;;;;;;;13.26;52.11;101161.41;8363341;23;20264;-78
2023/12/16 12:40:31;;;;;;;12.27;9.37;;;;;;;13.64;51.98;101160.78;8363682;23;20287;-81
2023/12/16 12:43:52;;;;;;;11.13;9.97;;;;;;;13.82;50.82;101158.78;8364132;23;20263;-79
2023/12/16 12:47:14;;;;;;;12.53;9.50;;;;;;;13.39;51.58;101147.38;8364611;23;20206;-79
2023/12/16 12:50:37;;;;;;;12.80;10.33;;;;;;;13.66;50.99;101137.09;8363455;23;20694;-81
2023/12/16 12:53:59;;;;;;;11.87;10.37;;;;;;;13.29;51.59;101131.25;8364328;23;20631;-80
2023/12/16 12:57:21;;;;;;;12.90;10.63;;;;;;;13.32;52.16;101138.19;8364018;23;20188;-79
2023/12/16 13:00:44;;;;;;;11.00;9.80;;;;;;;13.52;51.43;101147.75;8362466;23;20221;-80
2023/12/16 13:04:06;;;;;;;11.00;9.57;;;;;;;13.79;49.84;101125.72;8364015;23;20536;-80
2023/12/16 13:07:28;;;;;;;15.10;10.63;;;;;;;13.43;52.43;101141.47;8365127;23;20237;-79
2023/12/16 13:10:51;;;;;;;11.77;9.20;;;;;;;13.90;50.94;101125.38;8361653;23;20237;-80
2023/12/16 13:14:13;;;;;;;11.07;9.37;;;;;;;13.46;51.22;101111.28;8363533;23;20196;-78
2023/12/16 13:17:34;;;;;;;12.73;10.00;;;;;;;13.68;51.40;101109.81;8360862;23;20645;-79
2023/12/16 13:20:56;;;;;;;14.53;10.60;;;;;;;13.33;52.46;101116.38;8358915;23;20288;-79
2023/12/16 13:24:19;;;;;;;10.77;9.10;;;;;;;13.69;51.60;101120.47;8361402;23;20206;-79
2023/12/16 13:27:41;;;;;;;9.67;8.73;;;;;;;14.11;50.42;101101.28;8362205;23;20205;-79
2023/12/16 13:31:03;;;;;;;15.43;9.07;;;;;;;14.05;49.35;101110.13;8361708;23;20211;-80
2023/12/16 13:34:24;;;;;;;10.90;9.00;;;;;;;13.99;50.40;101092.66;8364870;23;20182;-80
2023/12/16 13:37:46;;;;;;;12.50;9.10;;;;;;;14.01;49.50;101106.06;8364432;23;20260;-78
2023/12/16 13:41:09;;;;;;;11.47;8.73;;;;;;;13.22;51.15;101100.41;8362670;23;20214;-80
2023/12/16 13:44:30;;;;;;;11.80;8.87;;;;;;;13.64;50.09;101087.59;8363403;23;20264;-78
2023/12/16 13:47:52;;;;;;;11.90;7.80;;;;;;;13.63;50.06;101101.34;8364183;23;20513;-78
2023/12/16 13:51:14;;;;;;;12.13;8.90;;;;;;;13.62;49.70;101100.47;8362507;23;20531;-79
2023/12/16 13:54:35;;;;;;;11.60;8.57;;;;;;;13.78;50.25;101099.63;8367101;23;20236;-80
2023/12/16 13:57:58;;;;;;;12.80;9.17;;;;;;;13.46;50.66;101103.16;8364869;23;20210;-81
2023/12/16 14:01:21;;;;;;;13.20;8.57;;;;;;;13.10;51.85;101100.91;8363136;23;20273;-80
2023/12/16 14:04:44;;;;;;;11.03;9.00;;;;;;;13.57;50.74;101089.28;8362286;23;20182;-79
2023/12/16 14:08:05;;;;;;;13.87;9.63;;;;;;;13.09;52.02;101091.94;8363906;23;20212;-78
2023/12/16 14:11:27;;;;;;;10.63;9.53;;;;;;;13.22;51.20;101086.06;8363965;23;20674;-78
2023/12/16 14:14:50;;;;;;;13.50;10.70;;;;;;;12.86;51.76;101098.94;8371909;23;20186;-76
2023/12/16 14:18:11;;;;;;;13.23;9.83;;;;;;;13.03;52.34;101100.72;8365161;23;20202;-79
2023/12/16 14:21:33;;;;;;;12.50;9.73;;;;;;;13.04;52.51;101094.28;8361253;23;20533;-76
2023/12/16 14:24:54;;;;;;;14.60;9.93;;;;;;;13.13;51.78;101097.88;8359776;23;20186;-76
2023/12/16 14:28:16;;;;;;;12.27;8.60;;;;;;;13.09;51.68;101093.81;8361640;23;20254;-82
2023/12/16 14:31:39;;;;;;;11.63;9.17;;;;;;;13.14;51.17;101099.56;8361357;23;20332;-76
2023/12/16 14:35:02;;;;;;;12.60;8.87;;;;;;;13.21;50.07;101090.59;8361835;23;20232;-76
2023/12/16 14:38:24;;;;;;;10.23;8.47;;;;;;;12.68;51.47;101083.84;8360293;23;20189;-76
2023/12/16 14:41:45;;;;;;;12.63;8.03;;;;;;;13.17;50.26;101096.53;8360487;23;20213;-76
2023/12/16 14:45:07;;;;;;;14.90;9.70;;;;;;;13.31;51.01;101088.59;8362598;23;20238;-76
2023/12/16 14:48:30;;;;;;;13.20;9.53;;;;;;;13.18;51.69;101066.56;8362266;23;20336;-79
2023/12/16 14:51:52;;;;;;;15.07;8.83;;;;;;;13.35;51.45;101084.56;8362779;23;20209;-76
2023/12/16 14:55:13;;;;;;;12.63;8.67;;;;;;;13.62;50.83;101089.63;8363839;23;20193;-78
2023/12/16 14:58:35;;;;;;;10.00;8.70;;;;;;;13.64;50.24;101087.59;8362654;23;20705;-76
2023/12/16 15:01:56;;;;;;;16.67;8.80;;;;;;;13.52;50.51;101071.84;8362155;23;20288;-78
2023/12/16 15:05:19;;;;;;;14.47;8.70;;;;;;;13.51;50.74;101073.69;8362485;23;20213;-77
2023/12/16 15:08:41;;;;;;;13.07;8.87;;;;;;;13.40;51.15;101062.34;8360038;23;20233;-78
2023/12/16 15:12:02;;;;;;;16.77;10.00;;;;;;;12.83;52.67;101065.94;8363489;23;20229;-77
2023/12/16 15:15:25;;;;;;;11.67;9.57;;;;;;;12.65;53.85;101070.63;8362500;23;20185;-78
2023/12/16 15:18:46;;;;;;;16.13;9.50;;;;;;;12.87;53.28;101054.59;8361132;23;20189;-77
2023/12/16 15:22:09;;;;;;;13.10;9.23;;;;;;;13.13;53.16;101059.94;8360986;23;20213;-77
2023/12/16 15:25:31;;;;;;;13.10;9.40;;;;;;;12.98;53.25;101048.09;8364339;23;20231;-79